Sherry, Wisconsin
Current Conditions -  °F | °C
As of 5:54 AM on Monday 20 Oct 2014 (Local Time) from KMFI Reporting Station
Clear Clear  
Wind Chill: 37°   Ceiling: Unl
Heat Index: 43°   Visibility: 10mi
Dew Point: 40°   Wind: 12mph
Humidity: 89%   Direction: 320°NW
Pressure: 29.85"   Gusts: NA
Location:  44.6004°N, 89.889°W
Report Text: KMFI 201054Z AUTO 32010KT 10SM CLR 06/04 A2985 RMK AO2 SLP113 T00610044
Loading
Personal Weather Stations






























Interactive Weather Map
Tropical Storm Tracking
New forecast layout! Learn more

10-Day Weather Forecast

Advertisements
Track Severe Weather on mobile